Time;durP1;ratioP1;P1;durP2;ratioP2;P2;SDS_P1;SDS_P2;PMS_P1;PMS_P2;Temp;Humidity;BMP_temperature;BMP_pressure;BME280_temperature;BME280_humidity;BME280_pressure;Samples;Min_cycle;Max_cycle;Signal;HPM_P1;HPM_P2
2022/07/01 00:01:49;;;;;;;1.45;0.30;;;;;;;16.83;70.21;100570.91;5112014;28;20051;-72
2022/07/01 00:04:52;;;;;;;0.82;0.22;;;;;;;17.08;70.18;100569.84;5112022;28;20043;-73
2022/07/01 00:08:14;;;;;;;7.53;1.95;;;;;;;17.14;69.07;100568.53;5111837;28;20047;-73
2022/07/01 00:11:17;;;;;;;1.88;0.40;;;;;;;16.94;70.96;100575.34;5111562;28;20511;-73
2022/07/01 00:14:22;;;;;;;1.60;0.40;;;;;;;16.90;70.24;100577.38;5111472;28;20043;-73
2022/07/01 00:17:26;;;;;;;1.60;0.30;;;;;;;17.33;69.81;100581.13;5112169;28;20211;-73
2022/07/01 00:20:29;;;;;;;2.30;0.28;;;;;;;17.00;70.91;100580.16;5112104;28;20062;-73
2022/07/01 00:23:36;;;;;;;1.10;0.50;;;;;;;17.41;70.39;100587.44;5107327;28;20196;-73
2022/07/01 00:26:39;;;;;;;1.73;0.30;;;;;;;17.58;69.37;100603.75;5091236;28;20543;-73
2022/07/01 00:29:45;;;;;;;0.95;0.30;;;;;;;17.39;70.86;100621.09;5090995;28;20047;-73
2022/07/01 00:32:48;;;;;;;2.38;0.30;;;;;;;17.30;72.04;100615.72;5090735;28;20126;-73
2022/07/01 00:35:53;;;;;;;0.93;0.32;;;;;;;17.38;70.17;100610.63;5090960;28;20102;-74
2022/07/01 00:38:58;;;;;;;1.90;0.40;;;;;;;17.21;70.45;100617.28;5091408;28;20042;-72
2022/07/01 00:42:03;;;;;;;1.23;0.30;;;;;;;17.54;71.11;100612.91;5091283;28;20461;-72
2022/07/01 00:45:09;;;;;;;2.65;0.30;;;;;;;17.78;70.42;100615.44;5091399;28;20470;-72
2022/07/01 00:48:13;;;;;;;1.25;0.38;;;;;;;17.65;71.00;100611.09;5095305;28;20042;-72
2022/07/01 00:51:18;;;;;;;1.08;0.30;;;;;;;17.78;71.19;100615.44;5111420;28;20093;-72
2022/07/01 00:54:22;;;;;;;1.35;0.25;;;;;;;17.46;72.50;100596.84;5111084;28;20046;-72
2022/07/01 00:57:30;;;;;;;1.10;0.35;;;;;;;17.60;72.41;100607.97;5111051;28;20466;-73
2022/07/01 01:00:38;;;;;;;4.47;0.55;;;;;;;17.34;73.60;100614.50;5110685;28;20112;-73
2022/07/01 01:03:41;;;;;;;3.03;0.40;;;;;;;17.08;74.47;100616.56;5110332;28;20049;-73
2022/07/01 01:06:44;;;;;;;1.35;0.45;;;;;;;16.97;74.87;100625.28;5111060;28;20097;-72
2022/07/01 01:09:48;;;;;;;1.85;0.32;;;;;;;16.96;74.22;100627.09;5111284;28;20116;-73
2022/07/01 01:12:52;;;;;;;4.38;0.63;;;;;;;17.04;74.98;100626.53;5111256;28;20055;-73
2022/07/01 01:15:55;;;;;;;2.08;0.30;;;;;;;17.07;75.17;100636.00;5110749;28;20050;-73
2022/07/01 01:18:58;;;;;;;1.02;0.40;;;;;;;17.12;75.31;100644.41;5090551;28;20142;-73
2022/07/01 01:22:02;;;;;;;4.22;0.50;;;;;;;16.93;76.57;100651.09;5089926;28;20089;-73
2022/07/01 01:25:05;;;;;;;0.95;0.45;;;;;;;17.04;76.07;100658.22;5090067;28;20090;-74
2022/07/01 01:28:10;;;;;;;1.63;0.50;;;;;;;16.91;76.50;100653.03;5090461;28;20089;-73
2022/07/01 01:31:13;;;;;;;1.38;0.30;;;;;;;16.99;75.58;100667.44;5095697;28;20101;-73
2022/07/01 01:34:17;;;;;;;2.65;0.40;;;;;;;16.56;76.55;100684.72;5110459;28;20628;-73
2022/07/01 01:37:20;;;;;;;0.90;0.28;;;;;;;16.65;76.91;100677.91;5110087;28;20112;-72
2022/07/01 01:40:24;;;;;;;1.90;0.32;;;;;;;16.72;76.91;100684.41;5110425;28;20502;-73
2022/07/01 01:43:27;;;;;;;1.70;0.55;;;;;;;17.07;75.53;100683.53;5110379;28;20181;-73
2022/07/01 01:46:31;;;;;;;2.15;0.40;;;;;;;16.93;76.00;100692.53;5109453;28;20038;-72
2022/07/01 01:49:34;;;;;;;2.33;0.50;;;;;;;16.91;76.70;100694.44;5110494;28;20050;-73
2022/07/01 01:52:38;;;;;;;1.25;0.30;;;;;;;17.19;76.04;100687.88;5110263;28;20054;-73
2022/07/01 01:55:43;;;;;;;1.95;0.30;;;;;;;17.32;75.31;100683.31;5109660;28;20051;-73
2022/07/01 01:58:47;;;;;;;3.28;0.38;;;;;;;17.06;76.32;100687.16;5109798;28;20047;-73
2022/07/01 02:01:51;;;;;;;2.70;0.70;;;;;;;17.01;76.97;100684.03;5089137;28;20051;-74
2022/07/01 02:04:54;;;;;;;3.83;0.95;;;;;;;16.88;77.45;100690.25;5089111;28;20151;-73
2022/07/01 02:07:58;;;;;;;4.43;0.60;;;;;;;16.99;77.58;100681.50;5089738;28;20405;-73
2022/07/01 02:11:02;;;;;;;1.42;0.52;;;;;;;17.19;76.27;100687.88;5089246;28;20132;-73
2022/07/01 02:14:06;;;;;;;1.95;0.55;;;;;;;17.12;76.17;100676.13;5094358;28;20046;-73
2022/07/01 02:17:09;;;;;;;5.55;1.05;;;;;;;16.93;76.69;100693.38;5108371;28;20051;-73
2022/07/01 02:20:16;;;;;;;3.70;0.70;;;;;;;16.88;76.97;100699.94;5108640;28;20066;-73
2022/07/01 02:23:21;;;;;;;1.15;0.38;;;;;;;16.90;76.86;100714.72;5097838;28;20058;-73
2022/07/01 02:26:24;;;;;;;1.05;0.30;;;;;;;16.94;75.38;100712.69;5109356;28;20421;-74
2022/07/01 02:29:28;;;;;;;1.77;0.52;;;;;;;17.01;74.58;100715.75;5109539;28;20515;-73
2022/07/01 02:32:31;;;;;;;1.33;0.40;;;;;;;17.00;75.18;100721.97;5109611;28;20058;-73
2022/07/01 02:35:37;;;;;;;1.10;0.38;;;;;;;17.14;74.67;100727.03;5109363;28;20131;-73
2022/07/01 02:38:42;;;;;;;1.50;0.65;;;;;;;17.08;75.35;100723.06;5108928;28;20111;-73
2022/07/01 02:45:10;;;;;;;1.50;0.40;;;;;;;17.20;74.81;100716.00;5089454;28;20532;-73
2022/07/01 02:48:13;;;;;;;2.40;0.40;;;;;;;17.23;73.89;100721.06;5088691;28;20058;-73
2022/07/01 02:51:16;;;;;;;1.85;0.60;;;;;;;17.31;73.46;100718.66;5088581;28;20038;-74
2022/07/01 02:54:20;;;;;;;1.60;0.40;;;;;;;17.17;74.61;100721.53;5088478;28;20130;-73
2022/07/01 02:57:23;;;;;;;3.70;1.00;;;;;;;16.82;75.96;100722.41;5096999;28;20440;-73
2022/07/01 03:00:27;;;;;;;2.45;0.45;;;;;;;16.62;76.87;100720.38;5112997;28;20123;-73
2022/07/01 03:03:30;;;;;;;1.35;0.50;;;;;;;16.86;75.63;100707.16;5113980;28;20045;-73
2022/07/01 03:06:35;;;;;;;1.25;0.50;;;;;;;17.07;74.64;100696.75;5112676;28;20080;-73
2022/07/01 03:09:39;;;;;;;3.42;1.08;;;;;;;17.06;74.90;100689.78;5112094;28;20039;-73
2022/07/01 03:12:43;;;;;;;1.85;0.40;;;;;;;17.01;74.03;100681.41;5111046;28;20043;-73
2022/07/01 03:15:46;;;;;;;1.27;0.55;;;;;;;16.80;74.14;100689.97;5111818;28;20475;-73
2022/07/01 03:18:50;;;;;;;2.20;0.57;;;;;;;16.89;74.00;100693.72;5112011;28;20039;-73
2022/07/01 03:21:53;;;;;;;1.33;0.60;;;;;;;16.97;75.13;100680.75;5112277;28;20134;-73
2022/07/01 03:24:58;;;;;;;2.35;0.88;;;;;;;16.83;75.67;100678.34;5112532;28;20561;-73
2022/07/01 03:28:03;;;;;;;1.33;0.50;;;;;;;16.92;74.27;100662.63;5090019;28;20318;-73
2022/07/01 03:31:06;;;;;;;3.25;0.60;;;;;;;16.92;74.24;100673.22;5091149;28;20568;-73
2022/07/01 03:34:09;;;;;;;2.80;0.60;;;;;;;16.72;75.33;100684.41;5090265;28;20741;-73
2022/07/01 03:37:15;;;;;;;1.52;0.40;;;;;;;15.97;75.89;100690.78;5090975;28;20042;-73
2022/07/01 03:40:19;;;;;;;2.30;0.68;;;;;;;15.99;74.96;100686.25;5100011;28;20119;-73
2022/07/01 03:43:22;;;;;;;1.67;0.50;;;;;;;15.63;77.21;100680.94;5103423;28;20105;-74
2022/07/01 03:46:31;;;;;;;1.20;0.50;;;;;;;15.55;76.74;100668.31;5091797;28;20413;-73
2022/07/01 03:49:35;;;;;;;0.90;0.30;;;;;;;15.69;76.02;100662.09;5092193;28;20428;-73
2022/07/01 03:52:40;;;;;;;2.47;0.47;;;;;;;15.76;75.88;100685.28;5109993;28;20104;-73
2022/07/01 03:55:43;;;;;;;2.38;0.60;;;;;;;15.58;75.83;100681.28;5111707;28;20597;-73
2022/07/01 03:58:48;;;;;;;1.80;0.68;;;;;;;15.59;75.90;100691.69;5112413;28;20042;-73
2022/07/01 04:01:56;;;;;;;2.83;0.50;;;;;;;15.62;74.32;100695.91;5111698;28;20073;-73
2022/07/01 04:04:59;;;;;;;1.65;0.55;;;;;;;15.22;75.61;100700.47;5111927;28;20062;-74
2022/07/01 04:08:05;;;;;;;1.00;0.40;;;;;;;15.54;74.94;100691.19;5111819;28;20047;-74
2022/07/01 04:11:09;;;;;;;0.93;0.40;;;;;;;15.55;74.84;100692.03;5111552;28;20764;-74
2022/07/01 04:14:13;;;;;;;1.35;0.47;;;;;;;15.33;73.88;100690.91;5111154;28;20093;-74
2022/07/01 04:17:16;;;;;;;1.13;0.50;;;;;;;15.29;74.52;100685.97;5111928;28;20107;-74
2022/07/01 04:20:19;;;;;;;5.68;0.40;;;;;;;15.21;74.42;100683.00;5111525;28;20043;-74
2022/07/01 04:23:23;;;;;;;1.75;0.45;;;;;;;15.11;75.34;100678.34;5111422;28;20104;-74
2022/07/01 04:26:27;;;;;;;1.27;0.47;;;;;;;15.29;75.50;100678.88;5110426;28;20054;-74
2022/07/01 04:29:31;;;;;;;3.58;1.02;;;;;;;15.92;73.39;100677.13;5110522;28;20591;-74
2022/07/01 04:32:35;;;;;;;2.28;0.40;;;;;;;15.76;72.74;100673.88;5110437;28;20043;-74
2022/07/01 04:35:39;;;;;;;1.33;0.40;;;;;;;15.57;73.48;100675.16;5111177;28;20043;-73
2022/07/01 04:38:43;;;;;;;2.55;0.45;;;;;;;15.51;74.09;100675.59;5110388;28;20049;-73
2022/07/01 04:41:59;;;;;;;3.80;0.60;;;;;;;15.79;73.52;100679.78;5110875;28;20088;-73
2022/07/01 04:45:02;;;;;;;1.02;0.40;;;;;;;15.72;71.89;100682.94;5110971;28;20105;-73
2022/07/01 04:48:06;;;;;;;0.88;0.25;;;;;;;15.70;74.36;100695.44;5110892;28;20180;-71
2022/07/01 04:51:09;;;;;;;1.08;0.40;;;;;;;15.85;74.82;100698.75;5110160;28;20072;-72
2022/07/01 04:54:12;;;;;;;2.65;0.30;;;;;;;15.61;74.09;100711.84;5112018;28;20097;-72
2022/07/01 04:57:16;;;;;;;1.00;0.55;;;;;;;15.87;73.12;100734.59;5110987;28;20041;-72
2022/07/01 05:00:20;;;;;;;3.03;0.45;;;;;;;15.57;74.99;100735.78;5110496;28;20504;-72
2022/07/01 05:03:23;;;;;;;3.70;0.30;;;;;;;15.75;74.52;100738.09;5111220;28;20058;-71
2022/07/01 05:06:26;;;;;;;1.60;0.30;;;;;;;15.61;74.70;100740.84;5109574;28;20413;-71
2022/07/01 05:09:30;;;;;;;1.08;0.25;;;;;;;15.90;72.93;100729.13;5111008;28;20093;-71
2022/07/01 05:16:43;;;;;;;1.23;0.40;;;;;;;16.01;72.21;100746.78;5112539;28;20054;-72
2022/07/01 05:23:09;;;;;;;2.13;0.47;;;;;;;16.14;71.53;100758.16;5089384;28;20089;-72
2022/07/01 05:26:16;;;;;;;1.65;0.30;;;;;;;16.39;70.26;100773.06;5090348;28;20096;-72
2022/07/01 05:29:19;;;;;;;2.03;0.43;;;;;;;16.32;69.61;100778.91;5090288;28;20425;-72
2022/07/01 05:32:22;;;;;;;1.35;0.35;;;;;;;16.13;70.14;100787.28;5089326;28;20043;-72
2022/07/01 05:35:25;;;;;;;1.08;0.30;;;;;;;16.10;70.21;100771.69;5089395;28;20043;-73
2022/07/01 05:38:29;;;;;;;1.83;0.40;;;;;;;16.27;69.49;100789.75;5089403;28;20093;-72
2022/07/01 05:41:35;;;;;;;1.48;0.40;;;;;;;15.84;70.85;100786.72;5088705;28;20152;-72
2022/07/01 05:44:38;;;;;;;2.05;0.45;;;;;;;15.77;70.80;100781.88;5097904;28;20454;-72
2022/07/01 05:47:42;;;;;;;1.80;0.52;;;;;;;15.89;69.88;100780.19;5108907;28;20050;-72
2022/07/01 05:50:47;;;;;;;1.75;0.30;;;;;;;16.07;69.61;100788.56;5108641;28;20050;-72
2022/07/01 05:53:50;;;;;;;2.38;0.50;;;;;;;15.96;69.62;100785.84;5109427;28;20045;-72
2022/07/01 05:56:54;;;;;;;1.65;0.45;;;;;;;16.15;68.84;100777.47;5108844;28;20047;-72
2022/07/01 05:59:57;;;;;;;4.43;1.17;;;;;;;16.46;67.81;100792.78;5108848;28;20562;-71
2022/07/01 06:03:01;;;;;;;1.58;0.38;;;;;;;16.70;66.74;100799.84;5108610;28;20045;-71
2022/07/01 06:06:04;;;;;;;4.32;0.80;;;;;;;16.36;67.96;100810.22;5109858;28;20066;-71
2022/07/01 06:09:33;;;;;;;1.58;0.40;;;;;;;15.92;68.66;100800.19;5107698;28;20155;-71
2022/07/01 06:12:41;;;;;;;2.20;0.60;;;;;;;16.60;66.86;100791.78;5107261;28;20138;-70
2022/07/01 06:15:45;;;;;;;1.50;0.43;;;;;;;16.56;66.79;100797.38;5107996;28;20456;-70
2022/07/01 06:18:49;;;;;;;1.90;0.70;;;;;;;16.70;66.31;100789.28;5109327;28;20092;-71
2022/07/01 06:21:54;;;;;;;2.33;0.80;;;;;;;16.80;65.98;100787.69;5110015;28;20046;-70
2022/07/01 06:25:02;;;;;;;2.60;0.80;;;;;;;17.09;64.94;100800.53;5108824;28;20048;-70
2022/07/01 06:28:07;;;;;;;2.78;0.50;;;;;;;17.07;64.95;100816.50;5102552;28;20108;-70
2022/07/01 06:31:11;;;;;;;2.80;0.60;;;;;;;16.89;64.74;100817.88;5088155;28;20043;-70
2022/07/01 06:34:22;;;;;;;6.88;1.23;;;;;;;16.41;65.96;100804.63;5088850;28;20552;-69
2022/07/01 06:37:26;;;;;;;3.50;0.70;;;;;;;16.41;66.63;100799.34;5089404;28;20047;-71
2022/07/01 06:40:29;;;;;;;2.70;0.88;;;;;;;16.76;65.18;100806.53;5089444;28;20063;-70
2022/07/01 06:43:34;;;;;;;4.00;0.70;;;;;;;16.78;64.35;100817.78;5108236;28;20050;-71
2022/07/01 06:46:38;;;;;;;4.30;0.85;;;;;;;16.15;65.72;100824.97;5108635;28;20058;-71
2022/07/01 06:49:42;;;;;;;3.47;0.90;;;;;;;16.12;65.64;100830.47;5108840;28;20507;-70
2022/07/01 06:52:45;;;;;;;3.13;1.08;;;;;;;16.34;65.08;100806.88;5109330;28;20417;-70
2022/07/01 06:55:49;;;;;;;3.92;1.40;;;;;;;16.20;65.19;100793.81;5108282;28;20101;-70
2022/07/01 06:58:52;;;;;;;2.25;0.50;;;;;;;16.26;65.01;100806.56;5108098;28;20121;-69
2022/07/01 07:01:56;;;;;;;2.20;0.57;;;;;;;16.14;65.82;100805.63;5107831;28;20043;-68
2022/07/01 07:05:00;;;;;;;2.63;0.90;;;;;;;16.17;65.99;100815.13;5107303;28;20042;-69
2022/07/01 07:08:04;;;;;;;4.03;0.70;;;;;;;16.08;66.26;100836.88;5107552;28;20191;-70
2022/07/01 07:11:08;;;;;;;4.80;0.95;;;;;;;16.13;65.31;100834.78;5107806;28;20082;-71
2022/07/01 07:14:13;;;;;;;2.47;0.70;;;;;;;16.16;65.82;100834.56;5108357;28;20038;-68
2022/07/01 07:17:16;;;;;;;3.95;0.80;;;;;;;16.31;65.04;100854.59;5108407;28;20055;-67
2022/07/01 07:20:20;;;;;;;2.40;0.77;;;;;;;16.35;65.21;100874.50;5106697;28;20088;-66
2022/07/01 07:23:23;;;;;;;3.80;1.00;;;;;;;15.93;66.40;100881.84;5106496;28;20124;-67
2022/07/01 07:26:27;;;;;;;2.42;0.93;;;;;;;16.01;66.16;100897.13;5106563;28;20043;-66
2022/07/01 07:29:31;;;;;;;3.13;0.70;;;;;;;16.05;66.18;100893.34;5106700;28;20050;-66
2022/07/01 07:32:34;;;;;;;3.17;0.60;;;;;;;16.19;65.67;100882.66;5107856;28;20181;-66
2022/07/01 07:35:38;;;;;;;4.38;0.70;;;;;;;16.40;65.10;100874.19;5108314;28;20342;-67
2022/07/01 07:38:41;;;;;;;3.83;0.80;;;;;;;16.57;64.60;100880.91;5106609;28;20050;-66
2022/07/01 07:41:45;;;;;;;4.35;0.90;;;;;;;16.22;66.11;100876.34;5098060;28;20450;-67
2022/07/01 07:44:49;;;;;;;2.80;0.55;;;;;;;16.71;64.95;100878.94;5088611;28;20578;-67
2022/07/01 07:47:54;;;;;;;2.28;0.77;;;;;;;16.79;64.14;100882.88;5090883;28;20051;-67
2022/07/01 07:50:57;;;;;;;3.20;1.15;;;;;;;16.80;64.10;100893.31;5091572;28;20094;-66
2022/07/01 07:54:02;;;;;;;2.80;0.75;;;;;;;16.96;63.71;100908.91;5109292;28;20042;-70
2022/07/01 07:57:08;;;;;;;4.65;0.90;;;;;;;16.62;64.64;100923.66;5111682;28;20160;-69
2022/07/01 08:00:13;;;;;;;6.97;0.90;;;;;;;16.55;64.80;100927.69;5111113;28;20077;-69
2022/07/01 08:03:16;;;;;;;2.30;0.73;;;;;;;16.68;64.30;100915.28;5110768;28;20096;-67
2022/07/01 08:06:19;;;;;;;4.38;1.10;;;;;;;16.26;66.34;100923.50;5109875;28;20511;-67
2022/07/01 08:09:24;;;;;;;7.10;1.02;;;;;;;15.97;66.77;100919.41;5111151;28;20039;-67
2022/07/01 08:12:28;;;;;;;2.95;1.08;;;;;;;16.07;67.08;100911.69;5111241;28;20167;-66
2022/07/01 08:15:32;;;;;;;2.70;0.93;;;;;;;16.10;66.77;100903.56;5111503;28;20050;-66
2022/07/01 08:18:36;;;;;;;4.47;1.20;;;;;;;16.24;66.22;100892.88;5110810;28;20070;-70
2022/07/01 08:21:39;;;;;;;3.55;0.80;;;;;;;16.19;66.57;100884.47;5110424;28;20089;-76
2022/07/01 08:24:43;;;;;;;3.35;1.20;;;;;;;16.19;67.92;100871.28;5110650;28;20594;-78
2022/07/01 08:27:46;;;;;;;3.42;1.00;;;;;;;16.83;64.69;100866.69;5111143;28;20038;-70
2022/07/01 08:30:49;;;;;;;6.47;1.00;;;;;;;17.08;65.20;100863.09;5111840;28;20054;-68
2022/07/01 08:33:53;;;;;;;5.15;0.73;;;;;;;17.22;62.62;100867.34;5111894;28;20046;-69
2022/07/01 08:36:56;;;;;;;5.43;1.00;;;;;;;17.13;64.02;100868.88;5111080;28;20046;-69
2022/07/01 08:40:00;;;;;;;4.57;1.40;;;;;;;16.84;64.84;100894.78;5112003;28;20047;-70
2022/07/01 08:43:05;;;;;;;5.88;1.42;;;;;;;17.16;63.18;100895.06;5112930;28;20046;-64
2022/07/01 08:46:09;;;;;;;5.75;0.93;;;;;;;16.80;63.82;100893.31;5112195;28;20042;-64
2022/07/01 08:49:16;;;;;;;5.55;1.08;;;;;;;17.15;63.03;100884.63;5113407;28;20047;-63
2022/07/01 08:52:19;;;;;;;4.78;0.80;;;;;;;17.29;62.40;100863.28;5114555;28;20168;-65
2022/07/01 08:55:23;;;;;;;2.60;0.77;;;;;;;17.41;62.66;100872.09;5113776;28;20478;-66
2022/07/01 08:58:28;;;;;;;6.40;1.15;;;;;;;17.27;65.85;100862.56;5114002;28;20508;-65
2022/07/01 09:01:31;;;;;;;4.10;0.85;;;;;;;17.41;62.21;100857.06;5114477;28;20101;-65
2022/07/01 09:04:35;;;;;;;3.58;0.68;;;;;;;17.38;62.04;100873.16;5114543;28;20405;-65
2022/07/01 09:07:38;;;;;;;3.38;0.88;;;;;;;17.62;61.70;100891.63;5114355;28;20047;-71
2022/07/01 09:10:42;;;;;;;4.63;0.98;;;;;;;18.06;60.67;100895.34;5113379;28;20049;-67
2022/07/01 09:14:03;;;;;;;2.70;0.88;;;;;;;17.39;61.81;100906.59;5114292;28;20043;-67
2022/07/01 09:17:07;;;;;;;3.65;1.05;;;;;;;17.93;60.60;100914.91;5102061;28;20058;-67
2022/07/01 09:20:23;;;;;;;3.33;0.90;;;;;;;17.62;60.65;100922.50;5090409;28;20039;-66
2022/07/01 09:23:30;;;;;;;3.85;0.93;;;;;;;17.72;60.45;100915.56;5090910;28;20554;-67
2022/07/01 09:26:37;;;;;;;5.20;0.98;;;;;;;18.15;61.31;100899.03;5090872;28;20092;-70
2022/07/01 09:29:43;;;;;;;5.05;0.82;;;;;;;18.51;58.72;100905.06;5103946;28;20409;-70
2022/07/01 09:33:08;;;;;;;2.17;0.70;;;;;;;18.66;58.11;100919.72;5110297;28;20412;-70
2022/07/01 09:36:26;;;;;;;2.72;0.85;;;;;;;18.36;58.52;100929.13;5110522;28;20135;-70
2022/07/01 09:39:42;;;;;;;2.83;0.73;;;;;;;18.23;58.53;100923.13;5110735;28;20069;-70
2022/07/01 09:42:46;;;;;;;2.80;0.75;;;;;;;18.11;59.04;100918.78;5110836;28;20070;-69
2022/07/01 09:45:57;;;;;;;2.88;0.85;;;;;;;18.39;58.16;100911.34;5111062;28;20076;-68
2022/07/01 09:49:00;;;;;;;3.15;0.88;;;;;;;18.30;58.22;100907.59;5109889;28;20078;-67
2022/07/01 09:52:04;;;;;;;2.88;0.82;;;;;;;18.17;57.89;100902.41;5109836;28;20046;-68
2022/07/01 09:55:08;;;;;;;2.30;0.57;;;;;;;18.00;58.96;100901.09;5109530;28;20055;-65
2022/07/01 09:58:13;;;;;;;4.47;0.82;;;;;;;17.87;59.10;100898.56;5109208;28;20124;-69
2022/07/01 10:01:17;;;;;;;2.50;0.85;;;;;;;18.16;58.55;100906.03;5109585;28;20053;-68
2022/07/01 10:04:21;;;;;;;3.55;0.80;;;;;;;18.03;58.02;100894.72;5110143;28;20038;-68
2022/07/01 10:07:28;;;;;;;2.38;0.80;;;;;;;17.82;58.70;100902.50;5109010;28;20054;-68
2022/07/01 10:10:57;;;;;;;4.78;1.15;;;;;;;17.75;59.23;100890.69;5109040;28;20452;-69
2022/07/01 10:14:06;;;;;;;5.80;0.95;;;;;;;17.94;58.48;100895.44;5108862;28;20184;-70
2022/07/01 10:17:09;;;;;;;2.80;0.60;;;;;;;18.05;58.65;100898.91;5108923;28;20059;-68
2022/07/01 10:20:16;;;;;;;4.18;0.70;;;;;;;18.52;57.12;100901.44;5108121;28;20042;-70
2022/07/01 10:23:27;;;;;;;2.58;0.63;;;;;;;18.47;56.55;100906.25;5108639;28;20141;-69
2022/07/01 10:26:31;;;;;;;2.95;0.80;;;;;;;18.67;55.63;100902.88;5107569;28;20045;-68
2022/07/01 10:29:38;;;;;;;2.35;0.70;;;;;;;18.98;54.80;100903.91;5108022;28;20170;-68
2022/07/01 10:32:51;;;;;;;3.78;0.70;;;;;;;19.05;53.75;100910.41;5108751;28;20055;-69
2022/07/01 10:35:55;;;;;;;4.30;0.63;;;;;;;19.29;53.39;100904.88;5108145;28;20171;-68
2022/07/01 10:39:06;;;;;;;3.05;0.80;;;;;;;19.32;52.88;100905.59;5107480;28;20039;-67
2022/07/01 10:42:11;;;;;;;4.25;0.70;;;;;;;19.10;53.75;100912.66;5088021;28;20094;-68
2022/07/01 10:45:17;;;;;;;4.20;0.82;;;;;;;19.28;53.86;100905.84;5088593;28;20476;-70
2022/07/01 10:48:21;;;;;;;3.00;0.60;;;;;;;19.18;52.83;100899.63;5087917;28;20046;-70
2022/07/01 10:51:50;;;;;;;3.10;0.70;;;;;;;18.99;52.36;100900.28;5088212;28;20090;-71
2022/07/01 10:54:55;;;;;;;3.95;1.10;;;;;;;19.07;52.75;100897.00;5094639;28;20057;-71
2022/07/01 10:57:58;;;;;;;2.25;0.40;;;;;;;19.33;52.13;100901.97;5106657;28;20043;-72
2022/07/01 11:01:03;;;;;;;3.65;0.50;;;;;;;19.61;51.15;100887.25;5107734;28;20092;-70
2022/07/01 11:04:07;;;;;;;2.95;0.47;;;;;;;19.44;48.47;100884.19;5107888;28;20631;-70
2022/07/01 11:07:11;;;;;;;1.48;0.50;;;;;;;19.65;49.21;100901.94;5109008;28;20081;-69
2022/07/01 11:10:18;;;;;;;2.45;0.68;;;;;;;19.41;50.29;100902.19;5107628;28;20100;-69
2022/07/01 11:13:22;;;;;;;2.80;0.65;;;;;;;19.46;50.22;100889.34;5087815;28;20166;-70
2022/07/01 11:16:25;;;;;;;1.20;0.30;;;;;;;19.56;50.01;100892.06;5086415;28;20055;-68
2022/07/01 11:19:29;;;;;;;2.25;0.57;;;;;;;19.80;50.80;100894.50;5087601;28;20172;-69
2022/07/01 11:22:34;;;;;;;3.03;0.75;;;;;;;19.84;50.19;100896.75;5091937;28;20077;-72
2022/07/01 11:25:38;;;;;;;2.55;0.70;;;;;;;20.04;49.39;100892.41;5112014;28;20096;-70
2022/07/01 11:28:41;;;;;;;1.65;0.50;;;;;;;20.35;47.04;100881.75;5112348;28;20069;-70
2022/07/01 11:31:45;;;;;;;1.52;0.50;;;;;;;20.44;47.26;100880.97;5111842;28;20440;-69
2022/07/01 11:34:49;;;;;;;1.30;0.40;;;;;;;20.35;47.33;100879.09;5111242;28;20528;-69
2022/07/01 11:41:47;;;;;;;3.65;0.95;;;;;;;20.11;47.09;100882.94;5112431;28;20050;-69
2022/07/01 11:44:51;;;;;;;2.58;0.50;;;;;;;19.87;47.48;100871.78;5110745;28;20418;-70
2022/07/01 11:47:56;;;;;;;2.60;0.50;;;;;;;20.45;46.57;100869.34;5110093;28;20062;-69
2022/07/01 11:51:05;;;;;;;2.53;0.40;;;;;;;20.14;46.39;100872.06;5110680;28;20100;-69
2022/07/01 11:54:21;;;;;;;3.55;0.35;;;;;;;19.68;46.75;100867.19;5111082;28;20135;-71
2022/07/01 11:57:28;;;;;;;3.50;0.52;;;;;;;19.60;48.12;100865.19;5111360;28;20124;-71
2022/07/01 12:00:35;;;;;;;3.20;0.35;;;;;;;19.52;47.63;100872.94;5111238;28;20049;-70
2022/07/01 12:03:38;;;;;;;2.38;0.68;;;;;;;19.21;47.69;100878.16;5110785;28;20038;-71
2022/07/01 12:06:43;;;;;;;3.28;0.52;;;;;;;19.19;47.83;100866.00;5110328;28;20581;-71
2022/07/01 12:09:50;;;;;;;4.18;0.50;;;;;;;19.04;48.23;100873.41;5111368;28;20042;-71
2022/07/01 12:12:54;;;;;;;1.90;0.60;;;;;;;19.29;48.63;100858.97;5110815;28;20190;-71
2022/07/01 12:16:11;;;;;;;3.03;0.60;;;;;;;19.46;48.47;100860.19;5110456;28;20131;-70
2022/07/01 12:19:14;;;;;;;1.52;0.57;;;;;;;19.56;51.42;100863.78;5110552;28;20242;-70
2022/07/01 12:22:20;;;;;;;3.80;0.50;;;;;;;19.69;50.55;100868.91;5110303;28;20043;-72
2022/07/01 12:25:24;;;;;;;2.45;0.40;;;;;;;19.35;50.59;100874.34;5110907;28;20131;-70
2022/07/01 12:28:37;;;;;;;2.25;0.63;;;;;;;19.21;51.16;100887.94;5110389;28;20058;-69
2022/07/01 12:32:01;;;;;;;4.00;0.60;;;;;;;19.15;51.90;100878.69;5110689;28;20089;-69
2022/07/01 12:38:35;;;;;;;4.63;0.40;;;;;;;19.15;51.47;100878.69;5110577;28;20086;-70
2022/07/01 12:41:53;;;;;;;1.77;0.52;;;;;;;19.60;51.43;100872.31;5110760;28;20108;-69
2022/07/01 12:45:00;;;;;;;2.38;0.50;;;;;;;19.61;51.38;100872.16;5109831;28;20109;-71
2022/07/01 12:48:04;;;;;;;3.95;0.60;;;;;;;19.46;51.36;100881.41;5110014;28;20069;-72
2022/07/01 12:51:16;;;;;;;4.43;1.35;;;;;;;19.78;50.70;100872.56;5089781;28;20063;-70
2022/07/01 12:54:34;;;;;;;2.97;0.57;;;;;;;19.98;50.77;100871.72;5089329;28;20527;-70
2022/07/01 12:57:37;;;;;;;2.13;0.50;;;;;;;20.15;49.49;100865.75;5089546;28;20293;-70
2022/07/01 13:00:43;;;;;;;7.32;0.68;;;;;;;20.21;49.04;100864.41;5088612;28;20078;-70
2022/07/01 13:03:47;;;;;;;4.97;0.50;;;;;;;20.67;45.53;100863.84;5097555;28;20100;-72
2022/07/01 13:06:50;;;;;;;2.67;0.60;;;;;;;21.35;45.47;100871.06;5109765;28;20038;-72
2022/07/01 13:09:54;;;;;;;4.55;0.50;;;;;;;21.50;44.66;100872.28;5110366;28;20047;-70
2022/07/01 13:12:58;;;;;;;4.50;0.60;;;;;;;21.15;45.32;100878.16;5104958;28;20528;-70
2022/07/01 13:16:02;;;;;;;2.70;0.40;;;;;;;20.94;43.70;100874.81;5076385;28;20059;-70
2022/07/01 13:19:05;;;;;;;1.70;0.60;;;;;;;20.78;44.64;100878.00;5105949;28;20070;-70
2022/07/01 13:22:09;;;;;;;2.47;0.55;;;;;;;20.72;44.53;100876.72;5109750;28;20046;-70
2022/07/01 13:25:13;;;;;;;3.72;1.00;;;;;;;20.83;44.84;100881.06;5099277;28;20051;-71
2022/07/01 13:28:18;;;;;;;1.80;0.30;;;;;;;20.43;44.14;100879.28;5089531;28;20039;-70
2022/07/01 13:31:22;;;;;;;4.00;0.80;;;;;;;20.42;44.46;100881.09;5089281;28;20051;-70
2022/07/01 13:34:26;;;;;;;5.10;0.50;;;;;;;20.09;45.36;100892.00;5109480;28;20100;-70
2022/07/01 13:37:57;;;;;;;1.85;0.45;;;;;;;20.41;45.75;100889.19;5109677;28;20086;-70
2022/07/01 13:41:02;;;;;;;3.97;2.10;;;;;;;20.56;44.63;100889.69;5109209;28;20458;-70
2022/07/01 13:44:05;;;;;;;2.17;0.63;;;;;;;21.35;42.27;100890.50;5108442;28;20046;-71
2022/07/01 13:47:12;;;;;;;2.17;0.32;;;;;;;21.32;44.52;100896.06;5108839;28;20042;-70
2022/07/01 13:50:18;;;;;;;1.42;0.30;;;;;;;20.72;43.00;100899.81;5109390;28;20467;-70
2022/07/01 13:53:22;;;;;;;2.88;0.40;;;;;;;20.70;44.56;100899.09;5109485;28;20050;-70
2022/07/01 13:56:26;;;;;;;1.83;0.30;;;;;;;20.38;45.39;100900.91;5108414;28;20054;-71
2022/07/01 13:59:29;;;;;;;3.55;0.60;;;;;;;21.00;43.04;100899.00;5108564;28;20063;-70
2022/07/01 14:02:36;;;;;;;1.25;0.50;;;;;;;21.37;40.26;100895.69;5087690;28;20047;-70
2022/07/01 14:05:43;;;;;;;1.40;0.50;;;;;;;22.39;37.91;100895.00;5088357;28;20078;-70
2022/07/01 14:08:48;;;;;;;2.85;0.52;;;;;;;23.65;36.12;100894.09;5087919;28;20121;-74
2022/07/01 14:11:52;;;;;;;1.45;0.40;;;;;;;25.23;33.76;100890.91;5088526;28;20126;-73
2022/07/01 14:14:57;;;;;;;2.70;0.52;;;;;;;26.92;30.14;100882.72;5094318;28;20470;-72
2022/07/01 14:18:01;;;;;;;3.03;0.60;;;;;;;27.81;29.36;100886.53;5089017;28;20180;-71
2022/07/01 14:21:04;;;;;;;1.80;0.40;;;;;;;25.89;31.08;100883.69;5087568;28;20105;-72
2022/07/01 14:24:08;;;;;;;3.17;1.25;;;;;;;23.53;34.46;100890.84;5087776;28;20423;-70
2022/07/01 14:27:12;;;;;;;3.08;0.80;;;;;;;22.41;37.97;100903.69;5087442;28;20054;-74
2022/07/01 14:30:16;;;;;;;1.85;0.50;;;;;;;21.30;41.29;100913.16;5102572;28;20088;-74
2022/07/01 14:33:22;;;;;;;2.15;0.52;;;;;;;21.14;41.11;100911.03;5107898;28;20100;-72
2022/07/01 14:36:25;;;;;;;2.03;0.50;;;;;;;21.35;41.95;100908.28;5108978;28;20515;-73
2022/07/01 14:39:28;;;;;;;2.55;0.60;;;;;;;21.89;40.38;100914.81;5107957;28;20046;-73